sensor_id;sensor_type;location;lat;lon;timestamp;pressure;altitude;pressure_sealevel;temperature;humidity
50349;BME280;36250;48.740;22.174;2023-04-25T00:00:56;99375.16;;;13.96;74.35
50349;BME280;36250;48.740;22.174;2023-04-25T00:03:22;99376.25;;;13.95;74.35
50349;BME280;36250;48.740;22.174;2023-04-25T00:05:50;99371.72;;;13.85;74.33
50349;BME280;36250;48.740;22.174;2023-04-25T00:08:16;99372.59;;;13.80;74.53
50349;BME280;36250;48.740;22.174;2023-04-25T00:10:42;99371.19;;;13.83;74.70
50349;BME280;36250;48.740;22.174;2023-04-25T00:13:08;99355.59;;;13.83;74.95
50349;BME280;36250;48.740;22.174;2023-04-25T00:15:33;99358.53;;;13.87;74.84
50349;BME280;36250;48.740;22.174;2023-04-25T00:18:01;99359.88;;;13.90;74.52
50349;BME280;36250;48.740;22.174;2023-04-25T00:20:26;99354.41;;;13.90;74.54
50349;BME280;36250;48.740;22.174;2023-04-25T00:22:51;99355.00;;;13.87;74.25
50349;BME280;36250;48.740;22.174;2023-04-25T00:25:18;99351.22;;;13.82;74.75
50349;BME280;36250;48.740;22.174;2023-04-25T00:27:43;99350.41;;;13.82;75.03
50349;BME280;36250;48.740;22.174;2023-04-25T00:30:09;99354.25;;;13.81;74.70
50349;BME280;36250;48.740;22.174;2023-04-25T00:32:35;99347.44;;;13.78;74.86
50349;BME280;36250;48.740;22.174;2023-04-25T00:35:00;99343.59;;;13.79;74.61
50349;BME280;36250;48.740;22.174;2023-04-25T00:37:25;99343.84;;;13.83;74.74
50349;BME280;36250;48.740;22.174;2023-04-25T00:39:51;99344.66;;;13.83;74.53
50349;BME280;36250;48.740;22.174;2023-04-25T00:42:18;99334.28;;;13.80;74.88
50349;BME280;36250;48.740;22.174;2023-04-25T00:44:44;99339.19;;;13.83;74.59
50349;BME280;36250;48.740;22.174;2023-04-25T00:47:11;99346.25;;;13.84;74.97
50349;BME280;36250;48.740;22.174;2023-04-25T00:49:36;99336.44;;;13.83;74.42
50349;BME280;36250;48.740;22.174;2023-04-25T00:52:01;99334.28;;;13.80;75.03
50349;BME280;36250;48.740;22.174;2023-04-25T00:54:27;99334.34;;;13.75;74.98
50349;BME280;36250;48.740;22.174;2023-04-25T00:56:52;99332.19;;;13.72;74.95
50349;BME280;36250;48.740;22.174;2023-04-25T00:59:19;99333.38;;;13.66;75.21
50349;BME280;36250;48.740;22.174;2023-04-25T01:01:45;99336.16;;;13.61;75.95
50349;BME280;36250;48.740;22.174;2023-04-25T01:04:10;99325.22;;;13.61;75.79
50349;BME280;36250;48.740;22.174;2023-04-25T01:06:36;99329.63;;;13.57;75.97
50349;BME280;36250;48.740;22.174;2023-04-25T01:09:02;99319.00;;;13.56;76.09
50349;BME280;36250;48.740;22.174;2023-04-25T01:11:27;99325.88;;;13.53;76.30
50349;BME280;36250;48.740;22.174;2023-04-25T01:13:53;99321.72;;;13.56;76.38
50349;BME280;36250;48.740;22.174;2023-04-25T01:16:18;99323.66;;;13.55;76.57
50349;BME280;36250;48.740;22.174;2023-04-25T01:18:44;99312.50;;;13.52;76.67
50349;BME280;36250;48.740;22.174;2023-04-25T01:21:11;99313.59;;;13.51;76.57
50349;BME280;36250;48.740;22.174;2023-04-25T01:23:39;99313.84;;;13.54;76.93
50349;BME280;36250;48.740;22.174;2023-04-25T01:26:06;99315.69;;;13.59;76.91
50349;BME280;36250;48.740;22.174;2023-04-25T01:28:34;99307.19;;;13.60;76.61
50349;BME280;36250;48.740;22.174;2023-04-25T01:30:59;99316.22;;;13.61;76.38
50349;BME280;36250;48.740;22.174;2023-04-25T01:33:25;99314.00;;;13.63;76.89
50349;BME280;36250;48.740;22.174;2023-04-25T01:35:50;99312.13;;;13.58;77.02
50349;BME280;36250;48.740;22.174;2023-04-25T01:38:16;99302.91;;;13.54;77.33
50349;BME280;36250;48.740;22.174;2023-04-25T01:40:44;99303.94;;;13.58;77.08
50349;BME280;36250;48.740;22.174;2023-04-25T01:43:10;99298.75;;;13.57;77.16
50349;BME280;36250;48.740;22.174;2023-04-25T01:45:38;99296.31;;;13.55;77.23
50349;BME280;36250;48.740;22.174;2023-04-25T01:48:11;99299.56;;;13.57;76.89
50349;BME280;36250;48.740;22.174;2023-04-25T01:50:38;99299.56;;;13.57;77.23
50349;BME280;36250;48.740;22.174;2023-04-25T01:53:04;99296.03;;;13.57;76.96
50349;BME280;36250;48.740;22.174;2023-04-25T01:55:30;99291.34;;;13.57;76.93
50349;BME280;36250;48.740;22.174;2023-04-25T01:57:55;99291.34;;;13.57;77.06
50349;BME280;36250;48.740;22.174;2023-04-25T02:00:21;99294.91;;;13.58;77.28
50349;BME280;36250;48.740;22.174;2023-04-25T02:02:46;99293.34;;;13.52;77.18
50349;BME280;36250;48.740;22.174;2023-04-25T02:05:11;99293.09;;;13.48;77.53
50349;BME280;36250;48.740;22.174;2023-04-25T02:07:37;99290.38;;;13.48;77.07
50349;BME280;36250;48.740;22.174;2023-04-25T02:10:03;99292.06;;;13.44;77.12
50349;BME280;36250;48.740;22.174;2023-04-25T02:12:28;99279.50;;;13.43;77.40
50349;BME280;36250;48.740;22.174;2023-04-25T02:14:54;99274.84;;;13.44;77.41
50349;BME280;36250;48.740;22.174;2023-04-25T02:17:19;99275.41;;;13.41;77.74
50349;BME280;36250;48.740;22.174;2023-04-25T02:19:46;99280.69;;;13.37;77.75
50349;BME280;36250;48.740;22.174;2023-04-25T02:22:11;99271.94;;;13.35;77.75
50349;BME280;36250;48.740;22.174;2023-04-25T02:24:37;99279.84;;;13.37;77.99
50349;BME280;36250;48.740;22.174;2023-04-25T02:27:02;99277.41;;;13.35;78.09
50349;BME280;36250;48.740;22.174;2023-04-25T02:29:28;99274.66;;;13.35;77.86
50349;BME280;36250;48.740;22.174;2023-04-25T02:31:54;99271.13;;;13.35;77.86
50349;BME280;36250;48.740;22.174;2023-04-25T02:34:19;99274.75;;;13.30;78.37
50349;BME280;36250;48.740;22.174;2023-04-25T02:36:45;99273.63;;;13.31;77.91
50349;BME280;36250;48.740;22.174;2023-04-25T02:39:10;99276.88;;;13.33;78.42
50349;BME280;36250;48.740;22.174;2023-04-25T02:41:35;99274.97;;;13.34;78.37
50349;BME280;36250;48.740;22.174;2023-04-25T02:44:01;99270.31;;;13.34;78.29
50349;BME280;36250;48.740;22.174;2023-04-25T02:46:26;99273.56;;;13.36;78.17
50349;BME280;36250;48.740;22.174;2023-04-25T02:48:51;99278.50;;;13.34;78.03
50349;BME280;36250;48.740;22.174;2023-04-25T02:51:17;99278.56;;;13.29;78.54
50349;BME280;36250;48.740;22.174;2023-04-25T02:53:42;99267.19;;;13.22;78.98
50349;BME280;36250;48.740;22.174;2023-04-25T02:56:07;99270.47;;;13.19;79.22
50349;BME280;36250;48.740;22.174;2023-04-25T02:58:33;99265.88;;;13.14;79.41
50349;BME280;36250;48.740;22.174;2023-04-25T03:00:58;99266.72;;;13.15;79.67
50349;BME280;36250;48.740;22.174;2023-04-25T03:03:23;99269.44;;;13.15;79.66
50349;BME280;36250;48.740;22.174;2023-04-25T03:05:50;99260.19;;;13.11;80.03
50349;BME280;36250;48.740;22.174;2023-04-25T03:08:16;99256.69;;;13.05;80.63
50349;BME280;36250;48.740;22.174;2023-04-25T03:10:42;99264.59;;;13.07;80.39
50349;BME280;36250;48.740;22.174;2023-04-25T03:13:07;99264.88;;;13.05;80.43
50349;BME280;36250;48.740;22.174;2023-04-25T03:15:33;99263.78;;;13.06;80.85
50349;BME280;36250;48.740;22.174;2023-04-25T03:17:58;99254.50;;;13.07;81.08
50349;BME280;36250;48.740;22.174;2023-04-25T03:20:24;99253.94;;;13.05;81.48
50349;BME280;36250;48.740;22.174;2023-04-25T03:22:49;99252.03;;;13.06;80.97
50349;BME280;36250;48.740;22.174;2023-04-25T03:25:15;99255.84;;;13.05;81.41
50349;BME280;36250;48.740;22.174;2023-04-25T03:27:41;99256.41;;;13.07;80.97
50349;BME280;36250;48.740;22.174;2023-04-25T03:30:06;99250.97;;;13.02;81.18
50349;BME280;36250;48.740;22.174;2023-04-25T03:32:33;99260.53;;;12.99;81.62
50349;BME280;36250;48.740;22.174;2023-04-25T03:34:58;99256.44;;;13.02;81.54
50349;BME280;36250;48.740;22.174;2023-04-25T03:37:24;99257.25;;;13.02;81.78
50349;BME280;36250;48.740;22.174;2023-04-25T03:39:49;99258.84;;;13.03;81.47
50349;BME280;36250;48.740;22.174;2023-04-25T03:42:14;99259.47;;;13.00;81.67
50349;BME280;36250;48.740;22.174;2023-04-25T03:44:40;99258.69;;;12.95;81.45
50349;BME280;36250;48.740;22.174;2023-04-25T03:47:05;99254.31;;;12.94;81.86
50349;BME280;36250;48.740;22.174;2023-04-25T03:49:32;99250.25;;;12.91;82.27
50349;BME280;36250;48.740;22.174;2023-04-25T03:51:57;99254.91;;;12.91;82.17
50349;BME280;36250;48.740;22.174;2023-04-25T03:54:23;99256.00;;;12.90;82.72
50349;BME280;36250;48.740;22.174;2023-04-25T03:56:48;99248.34;;;12.92;82.65
50349;BME280;36250;48.740;22.174;2023-04-25T03:59:13;99251.56;;;12.94;82.82
50349;BME280;36250;48.740;22.174;2023-04-25T04:01:39;99248.84;;;12.94;82.92
50349;BME280;36250;48.740;22.174;2023-04-25T04:04:04;99251.38;;;12.90;82.62
50349;BME280;36250;48.740;22.174;2023-04-25T04:06:29;99253.84;;;12.87;82.88
50349;BME280;36250;48.740;22.174;2023-04-25T04:08:55;99258.72;;;12.90;83.17
50349;BME280;36250;48.740;22.174;2023-04-25T04:11:20;99253.28;;;12.90;82.96
50349;BME280;36250;48.740;22.174;2023-04-25T04:13:46;99255.38;;;12.98;83.25
50349;BME280;36250;48.740;22.174;2023-04-25T04:16:11;99258.38;;;12.96;83.09
50349;BME280;36250;48.740;22.174;2023-04-25T04:18:36;99255.38;;;12.98;82.97
50349;BME280;36250;48.740;22.174;2023-04-25T04:21:02;99255.91;;;13.00;83.13
50349;BME280;36250;48.740;22.174;2023-04-25T04:23:27;99250.50;;;12.95;83.00
50349;BME280;36250;48.740;22.174;2023-04-25T04:25:54;99247.25;;;12.93;82.67
50349;BME280;36250;48.740;22.174;2023-04-25T04:28:20;99248.63;;;12.90;83.09
50349;BME280;36250;48.740;22.174;2023-04-25T04:30:45;99258.97;;;12.93;82.84
50349;BME280;36250;48.740;22.174;2023-04-25T04:33:11;99257.59;;;12.96;82.51
50349;BME280;36250;48.740;22.174;2023-04-25T04:35:37;99251.88;;;12.92;82.67
50349;BME280;36250;48.740;22.174;2023-04-25T04:38:02;99247.25;;;12.93;82.86
50349;BME280;36250;48.740;22.174;2023-04-25T04:40:28;99255.94;;;12.95;83.10
50349;BME280;36250;48.740;22.174;2023-04-25T04:42:53;99249.91;;;12.98;83.09
50349;BME280;36250;48.740;22.174;2023-04-25T04:45:21;99250.97;;;13.02;82.44
50349;BME280;36250;48.740;22.174;2023-04-25T04:47:47;99258.84;;;13.03;82.71
50349;BME280;36250;48.740;22.174;2023-04-25T04:50:13;99244.94;;;13.05;82.69
50349;BME280;36250;48.740;22.174;2023-04-25T04:52:40;99243.78;;;13.11;82.30
50349;BME280;36250;48.740;22.174;2023-04-25T04:55:06;99239.97;;;13.12;82.67
50349;BME280;36250;48.740;22.174;2023-04-25T04:57:32;99244.84;;;13.15;82.56
50349;BME280;36250;48.740;22.174;2023-04-25T04:59:58;99249.72;;;13.18;82.33
50349;BME280;36250;48.740;22.174;2023-04-25T05:02:23;99246.13;;;13.23;82.29
50349;BME280;36250;48.740;22.174;2023-04-25T05:04:49;99244.75;;;13.25;82.32
50349;BME280;36250;48.740;22.174;2023-04-25T05:07:15;99243.91;;;13.25;82.29
50349;BME280;36250;48.740;22.174;2023-04-25T05:09:40;99245.25;;;13.27;81.93
50349;BME280;36250;48.740;22.174;2023-04-25T05:12:06;99248.50;;;13.29;82.06
50349;BME280;36250;48.740;22.174;2023-04-25T05:14:32;99248.22;;;13.31;82.19
50349;BME280;36250;48.740;22.174;2023-04-25T05:16:57;99240.25;;;13.34;81.98
50349;BME280;36250;48.740;22.174;2023-04-25T05:19:23;99242.41;;;13.37;81.65
50349;BME280;36250;48.740;22.174;2023-04-25T05:21:49;99244.53;;;13.40;81.83
50349;BME280;36250;48.740;22.174;2023-04-25T05:24:14;99247.22;;;13.45;81.77
50349;BME280;36250;48.740;22.174;2023-04-25T05:26:40;99238.94;;;13.50;82.01
50349;BME280;36250;48.740;22.174;2023-04-25T05:29:05;99243.25;;;13.56;81.99
50349;BME280;36250;48.740;22.174;2023-04-25T05:31:31;99233.88;;;13.62;81.80
50349;BME280;36250;48.740;22.174;2023-04-25T05:33:57;99240.59;;;13.70;81.35
50349;BME280;36250;48.740;22.174;2023-04-25T05:36:22;99240.03;;;13.73;81.45
50349;BME280;36250;48.740;22.174;2023-04-25T05:38:47;99226.50;;;13.81;81.49
50349;BME280;36250;48.740;22.174;2023-04-25T05:41:13;99233.59;;;13.82;81.28
50349;BME280;36250;48.740;22.174;2023-04-25T05:43:38;99235.50;;;13.82;81.24
50349;BME280;36250;48.740;22.174;2023-04-25T05:46:04;99229.53;;;13.80;81.19
50349;BME280;36250;48.740;22.174;2023-04-25T05:48:29;99239.06;;;13.82;80.61
50349;BME280;36250;48.740;22.174;2023-04-25T05:50:55;99236.91;;;13.79;80.90
50349;BME280;36250;48.740;22.174;2023-04-25T05:53:20;99237.66;;;13.85;80.72
50349;BME280;36250;48.740;22.174;2023-04-25T05:55:47;99228.94;;;13.83;80.52
50349;BME280;36250;48.740;22.174;2023-04-25T05:58:12;99236.63;;;13.81;80.75
50349;BME280;36250;48.740;22.174;2023-04-25T06:00:37;99236.63;;;13.81;80.61
50349;BME280;36250;48.740;22.174;2023-04-25T06:03:03;99233.97;;;13.76;80.80
50349;BME280;36250;48.740;22.174;2023-04-25T06:05:29;99236.91;;;13.79;80.72
50349;BME280;36250;48.740;22.174;2023-04-25T06:07:55;99231.81;;;13.92;80.89
50349;BME280;36250;48.740;22.174;2023-04-25T06:10:20;99234.47;;;13.97;80.33
50349;BME280;36250;48.740;22.174;2023-04-25T06:12:46;99229.44;;;14.04;80.41
50349;BME280;36250;48.740;22.174;2023-04-25T06:15:11;99230.06;;;14.01;79.91
50349;BME280;36250;48.740;22.174;2023-04-25T06:17:37;99227.69;;;13.94;80.26
50349;BME280;36250;48.740;22.174;2023-04-25T06:20:02;99236.44;;;13.96;80.40
50349;BME280;36250;48.740;22.174;2023-04-25T06:22:29;99235.09;;;13.94;80.09
50349;BME280;36250;48.740;22.174;2023-04-25T06:24:54;99234.56;;;13.92;80.29
50349;BME280;36250;48.740;22.174;2023-04-25T06:27:22;99235.69;;;13.91;79.41
50349;BME280;36250;48.740;22.174;2023-04-25T06:29:47;99230.22;;;13.91;80.29
50349;BME280;36250;48.740;22.174;2023-04-25T06:32:13;99233.47;;;13.93;80.00
50349;BME280;36250;48.740;22.174;2023-04-25T06:34:38;99236.50;;;13.91;80.77
50349;BME280;36250;48.740;22.174;2023-04-25T06:37:03;99233.47;;;13.93;80.00
50349;BME280;36250;48.740;22.174;2023-04-25T06:39:28;99233.47;;;13.93;80.29
50349;BME280;36250;48.740;22.174;2023-04-25T06:41:54;99226.78;;;13.99;80.29
50349;BME280;36250;48.740;22.174;2023-04-25T06:44:19;99225.03;;;14.08;80.44
50349;BME280;36250;48.740;22.174;2023-04-25T06:46:45;99219.69;;;14.16;80.03
50349;BME280;36250;48.740;22.174;2023-04-25T06:49:10;99229.16;;;14.24;80.35
50349;BME280;36250;48.740;22.174;2023-04-25T06:51:35;99224.19;;;14.26;79.78
50349;BME280;36250;48.740;22.174;2023-04-25T06:54:00;99225.59;;;14.23;79.55
50349;BME280;36250;48.740;22.174;2023-04-25T06:56:26;99227.38;;;14.33;79.98
50349;BME280;36250;48.740;22.174;2023-04-25T06:58:53;99225.09;;;14.40;80.16
50349;BME280;36250;48.740;22.174;2023-04-25T07:01:18;99226.13;;;14.44;79.82
50349;BME280;36250;48.740;22.174;2023-04-25T07:03:43;99226.63;;;14.46;80.05
50349;BME280;36250;48.740;22.174;2023-04-25T07:06:09;99225.31;;;14.43;79.35
50349;BME280;36250;48.740;22.174;2023-04-25T07:08:34;99225.78;;;14.32;79.21
50349;BME280;36250;48.740;22.174;2023-04-25T07:10:59;99220.66;;;14.25;79.59
50349;BME280;36250;48.740;22.174;2023-04-25T07:13:25;99219.09;;;14.19;79.52
50349;BME280;36250;48.740;22.174;2023-04-25T07:15:50;99216.44;;;14.14;79.31
50349;BME280;36250;48.740;22.174;2023-04-25T07:18:16;99221.59;;;14.16;79.75
50349;BME280;36250;48.740;22.174;2023-04-25T07:20:41;99220.31;;;14.13;79.85
50349;BME280;36250;48.740;22.174;2023-04-25T07:23:06;99217.75;;;14.17;80.35
50349;BME280;36250;48.740;22.174;2023-04-25T07:25:32;99222.66;;;14.20;80.23
50349;BME280;36250;48.740;22.174;2023-04-25T07:27:57;99214.94;;;14.22;80.33
50349;BME280;36250;48.740;22.174;2023-04-25T07:30:22;99221.59;;;14.16;80.05
50349;BME280;36250;48.740;22.174;2023-04-25T07:32:48;99212.81;;;14.19;80.17
50349;BME280;36250;48.740;22.174;2023-04-25T07:35:14;99214.44;;;14.20;79.76
50349;BME280;36250;48.740;22.174;2023-04-25T07:37:39;99226.50;;;14.19;79.54
50349;BME280;36250;48.740;22.174;2023-04-25T07:40:05;99217.19;;;14.20;79.26
50349;BME280;36250;48.740;22.174;2023-04-25T07:42:31;99217.19;;;14.20;79.22
50349;BME280;36250;48.740;22.174;2023-04-25T07:44:57;99219.41;;;14.18;79.07
50349;BME280;36250;48.740;22.174;2023-04-25T07:47:22;99224.13;;;14.12;79.29
50349;BME280;36250;48.740;22.174;2023-04-25T07:49:48;99218.88;;;13.97;79.64
50349;BME280;36250;48.740;22.174;2023-04-25T07:52:13;99222.88;;;13.86;80.29
50349;BME280;36250;48.740;22.174;2023-04-25T07:54:38;99221.97;;;13.72;80.30
50349;BME280;36250;48.740;22.174;2023-04-25T07:57:04;99224.13;;;13.56;81.01
50349;BME280;36250;48.740;22.174;2023-04-25T07:59:31;99228.31;;;13.49;81.23
50349;BME280;36250;48.740;22.174;2023-04-25T08:01:56;99231.94;;;13.44;81.39
50349;BME280;36250;48.740;22.174;2023-04-25T08:04:22;99235.06;;;13.33;81.77
50349;BME280;36250;48.740;22.174;2023-04-25T08:06:48;99231.88;;;13.26;82.11
50349;BME280;36250;48.740;22.174;2023-04-25T08:09:13;99233.41;;;13.13;82.22
50349;BME280;36250;48.740;22.174;2023-04-25T08:11:38;99233.69;;;12.83;80.58
50349;BME280;36250;48.740;22.174;2023-04-25T08:14:05;99234.38;;;12.65;81.14
50349;BME280;36250;48.740;22.174;2023-04-25T08:16:30;99230.19;;;12.48;81.73
50349;BME280;36250;48.740;22.174;2023-04-25T08:18:56;99228.09;;;12.35;82.24
50349;BME280;36250;48.740;22.174;2023-04-25T08:21:21;99228.97;;;12.31;82.04
50349;BME280;36250;48.740;22.174;2023-04-25T08:23:46;99230.88;;;12.30;82.55
50349;BME280;36250;48.740;22.174;2023-04-25T08:26:12;99235.47;;;12.35;82.72
50349;BME280;36250;48.740;22.174;2023-04-25T08:28:37;99237.06;;;12.41;82.68
50349;BME280;36250;48.740;22.174;2023-04-25T08:31:02;99239.50;;;12.42;83.08
50349;BME280;36250;48.740;22.174;2023-04-25T08:33:28;99243.59;;;12.40;82.64
50349;BME280;36250;48.740;22.174;2023-04-25T08:35:54;99241.13;;;12.43;83.09
50349;BME280;36250;48.740;22.174;2023-04-25T08:38:19;99240.06;;;12.44;83.44
50349;BME280;36250;48.740;22.174;2023-04-25T08:40:49;99240.09;;;12.39;83.46
50349;BME280;36250;48.740;22.174;2023-04-25T08:43:18;99247.41;;;12.44;83.49
50349;BME280;36250;48.740;22.174;2023-04-25T08:45:44;99243.00;;;12.48;83.27
50349;BME280;36250;48.740;22.174;2023-04-25T08:48:12;99245.75;;;12.48;83.51
50349;BME280;36250;48.740;22.174;2023-04-25T08:50:52;99244.88;;;12.52;82.73
50349;BME280;36250;48.740;22.174;2023-04-25T08:53:29;99244.88;;;12.52;82.74
50349;BME280;36250;48.740;22.174;2023-04-25T08:55:57;99250.84;;;12.54;81.62
50349;BME280;36250;48.740;22.174;2023-04-25T08:58:23;99259.31;;;12.58;81.92
50349;BME280;36250;48.740;22.174;2023-04-25T09:00:50;99256.56;;;12.58;79.81
50349;BME280;36250;48.740;22.174;2023-04-25T09:03:16;99266.78;;;12.42;79.09
50349;BME280;36250;48.740;22.174;2023-04-25T09:05:42;99257.59;;;12.33;79.33
50349;BME280;36250;48.740;22.174;2023-04-25T09:08:07;99265.56;;;12.30;79.80
50349;BME280;36250;48.740;22.174;2023-04-25T09:10:34;99263.16;;;12.18;78.42
50349;BME280;36250;48.740;22.174;2023-04-25T09:13:11;99266.50;;;12.10;79.84
50349;BME280;36250;48.740;22.174;2023-04-25T09:15:53;99264.09;;;11.99;79.63
50349;BME280;36250;48.740;22.174;2023-04-25T09:18:36;99257.31;;;11.91;80.47
50349;BME280;36250;48.740;22.174;2023-04-25T09:21:07;99261.16;;;11.90;80.01
50349;BME280;36250;48.740;22.174;2023-04-25T09:23:47;99260.34;;;11.90;79.98
50349;BME280;36250;48.740;22.174;2023-04-25T09:26:19;99256.28;;;11.87;80.14
50349;BME280;36250;48.740;22.174;2023-04-25T09:28:45;99255.72;;;11.90;80.86
50349;BME280;36250;48.740;22.174;2023-04-25T09:31:21;99261.13;;;11.95;80.52
50349;BME280;36250;48.740;22.174;2023-04-25T09:33:46;99263.31;;;11.98;80.70
50349;BME280;36250;48.740;22.174;2023-04-25T09:36:12;99257.25;;;12.01;80.60
50349;BME280;36250;48.740;22.174;2023-04-25T09:38:43;99264.56;;;12.11;80.40
50349;BME280;36250;48.740;22.174;2023-04-25T09:41:09;99258.00;;;12.17;80.85
50349;BME280;36250;48.740;22.174;2023-04-25T09:43:35;99257.13;;;12.21;80.80
50349;BME280;36250;48.740;22.174;2023-04-25T09:46:01;99263.34;;;12.32;81.11
50349;BME280;36250;48.740;22.174;2023-04-25T09:48:27;99267.34;;;12.44;80.90
50349;BME280;36250;48.740;22.174;2023-04-25T09:51:14;99259.34;;;12.53;79.67
50349;BME280;36250;48.740;22.174;2023-04-25T09:53:44;99267.50;;;12.58;79.09
50349;BME280;36250;48.740;22.174;2023-04-25T09:56:12;99269.84;;;12.70;79.50
50349;BME280;36250;48.740;22.174;2023-04-25T09:58:40;99270.31;;;12.77;79.30
50349;BME280;36250;48.740;22.174;2023-04-25T10:01:07;99264.81;;;12.82;78.47
50349;BME280;36250;48.740;22.174;2023-04-25T10:03:37;99269.22;;;12.78;77.81
50349;BME280;36250;48.740;22.174;2023-04-25T10:06:09;99269.78;;;12.75;78.67
50349;BME280;36250;48.740;22.174;2023-04-25T10:08:38;99272.44;;;12.85;78.32
50349;BME280;36250;48.740;22.174;2023-04-25T10:11:04;99267.69;;;12.95;77.41
50349;BME280;36250;48.740;22.174;2023-04-25T10:13:31;99267.34;;;13.02;77.16
50349;BME280;36250;48.740;22.174;2023-04-25T10:15:58;99262.19;;;13.00;76.58
50349;BME280;36250;48.740;22.174;2023-04-25T10:18:25;99265.25;;;12.94;77.08
50349;BME280;36250;48.740;22.174;2023-04-25T10:20:53;99274.00;;;12.96;76.62
50349;BME280;36250;48.740;22.174;2023-04-25T10:23:19;99266.84;;;13.00;77.06
50349;BME280;36250;48.740;22.174;2023-04-25T10:25:45;99273.63;;;13.02;76.07
50349;BME280;36250;48.740;22.174;2023-04-25T10:28:11;99268.44;;;13.01;74.84
50349;BME280;36250;48.740;22.174;2023-04-25T10:30:36;99266.88;;;12.95;74.40
50349;BME280;36250;48.740;22.174;2023-04-25T10:33:16;99262.25;;;12.95;74.59
50349;BME280;36250;48.740;22.174;2023-04-25T10:35:44;99262.81;;;12.92;73.98
50349;BME280;36250;48.740;22.174;2023-04-25T10:38:11;99256.53;;;12.92;74.76
50349;BME280;36250;48.740;22.174;2023-04-25T10:40:38;99259.78;;;12.94;73.68
50349;BME280;36250;48.740;22.174;2023-04-25T10:45:57;99252.19;;;12.91;73.79
50349;BME280;36250;48.740;22.174;2023-04-25T10:48:28;99250.03;;;12.88;74.51
50349;BME280;36250;48.740;22.174;2023-04-25T10:51:16;99250.88;;;12.83;73.55
50349;BME280;36250;48.740;22.174;2023-04-25T10:53:46;99255.00;;;12.81;74.24
50349;BME280;36250;48.740;22.174;2023-04-25T10:56:30;99260.53;;;12.76;74.11
50349;BME280;36250;48.740;22.174;2023-04-25T10:59:16;99270.63;;;12.75;74.41
50349;BME280;36250;48.740;22.174;2023-04-25T11:01:45;99266.81;;;12.76;74.88
50349;BME280;36250;48.740;22.174;2023-04-25T11:04:24;99270.56;;;12.80;75.49
50349;BME280;36250;48.740;22.174;2023-04-25T11:07:22;99279.00;;;12.84;75.48
50349;BME280;36250;48.740;22.174;2023-04-25T11:09:48;99281.78;;;12.79;73.72
50349;BME280;36250;48.740;22.174;2023-04-25T11:12:14;99281.88;;;12.69;74.88
50349;BME280;36250;48.740;22.174;2023-04-25T11:14:40;99282.75;;;12.64;74.52
50349;BME280;36250;48.740;22.174;2023-04-25T11:17:06;99276.03;;;12.51;73.14
50349;BME280;36250;48.740;22.174;2023-04-25T11:19:31;99273.44;;;12.31;74.40
50349;BME280;36250;48.740;22.174;2023-04-25T11:21:58;99293.69;;;12.20;74.68
50349;BME280;36250;48.740;22.174;2023-04-25T11:24:29;99282.41;;;11.98;72.94
50349;BME280;36250;48.740;22.174;2023-04-25T11:26:54;99280.03;;;11.76;73.89
50349;BME280;36250;48.740;22.174;2023-04-25T11:29:26;99289.63;;;11.64;74.04
50349;BME280;36250;48.740;22.174;2023-04-25T11:31:52;99286.09;;;11.58;75.09
50349;BME280;36250;48.740;22.174;2023-04-25T11:34:18;99280.38;;;11.55;74.23
50349;BME280;36250;48.740;22.174;2023-04-25T11:36:44;99277.94;;;11.53;75.32
50349;BME280;36250;48.740;22.174;2023-04-25T11:39:10;99280.94;;;11.52;75.39
50349;BME280;36250;48.740;22.174;2023-04-25T11:41:37;99267.88;;;11.49;74.59
50349;BME280;36250;48.740;22.174;2023-04-25T11:44:03;99267.63;;;11.45;75.27
50349;BME280;36250;48.740;22.174;2023-04-25T11:46:28;99274.41;;;11.48;76.54
50349;BME280;36250;48.740;22.174;2023-04-25T11:48:55;99270.88;;;11.42;76.74
50349;BME280;36250;48.740;22.174;2023-04-25T11:51:22;99269.53;;;11.40;77.31
50349;BME280;36250;48.740;22.174;2023-04-25T11:53:47;99269.78;;;11.48;78.28
50349;BME280;36250;48.740;22.174;2023-04-25T11:56:14;99268.16;;;11.47;76.54
50349;BME280;36250;48.740;22.174;2023-04-25T11:58:59;99271.13;;;11.51;75.82
50349;BME280;36250;48.740;22.174;2023-04-25T12:01:36;99275.47;;;11.52;75.89
50349;BME280;36250;48.740;22.174;2023-04-25T12:04:18;99282.03;;;11.56;76.97
50349;BME280;36250;48.740;22.174;2023-04-25T12:06:45;99281.19;;;11.60;76.82
50349;BME280;36250;48.740;22.174;2023-04-25T12:09:15;99281.72;;;11.62;77.16
50349;BME280;36250;48.740;22.174;2023-04-25T12:11:45;99288.00;;;11.63;76.73
50349;BME280;36250;48.740;22.174;2023-04-25T12:14:23;99292.06;;;11.65;76.83
50349;BME280;36250;48.740;22.174;2023-04-25T12:16:49;99284.72;;;11.66;76.87
50349;BME280;36250;48.740;22.174;2023-04-25T12:19:17;99283.09;;;11.60;76.21
50349;BME280;36250;48.740;22.174;2023-04-25T12:21:43;99281.47;;;11.59;76.59
50349;BME280;36250;48.740;22.174;2023-04-25T12:29:20;99271.09;;;11.61;74.96
50349;BME280;36250;48.740;22.174;2023-04-25T12:31:46;99276.03;;;11.59;76.05
50349;BME280;36250;48.740;22.174;2023-04-25T12:34:12;99276.84;;;11.54;76.45
50349;BME280;36250;48.740;22.174;2023-04-25T12:36:37;99276.06;;;11.49;74.66
50349;BME280;36250;48.740;22.174;2023-04-25T12:39:03;99280.41;;;11.45;76.17
50349;BME280;36250;48.740;22.174;2023-04-25T12:41:29;99271.69;;;11.48;76.15
50349;BME280;36250;48.740;22.174;2023-04-25T12:43:55;99280.72;;;11.43;76.14
50349;BME280;36250;48.740;22.174;2023-04-25T12:46:20;99274.44;;;11.43;77.67
50349;BME280;36250;48.740;22.174;2023-04-25T12:48:46;99275.81;;;11.40;77.42
50349;BME280;36250;48.740;22.174;2023-04-25T12:51:11;99279.34;;;11.41;77.90
50349;BME280;36250;48.740;22.174;2023-04-25T12:53:36;99272.00;;;11.36;77.25
50349;BME280;36250;48.740;22.174;2023-04-25T12:56:04;99269.31;;;11.31;77.80